createdAt,value
2023-02-17T00:01:37.986Z,101376.94
2023-02-17T00:04:08.079Z,101367.25
2023-02-17T00:06:36.315Z,101374.28
2023-02-17T00:09:04.921Z,101362.00
2023-02-17T00:11:36.180Z,101359.34
2023-02-17T00:14:05.473Z,101362.94
2023-02-17T00:16:33.640Z,101356.88
2023-02-17T00:19:02.799Z,101355.09
2023-02-17T00:21:32.691Z,101349.66
2023-02-17T00:24:01.768Z,101346.22
2023-02-17T00:26:30.392Z,101341.94
2023-02-17T00:28:59.919Z,101335.84
2023-02-17T00:31:28.223Z,101334.22
2023-02-17T00:33:56.856Z,101335.09
2023-02-17T00:36:26.589Z,101335.09
2023-02-17T00:38:57.403Z,101321.81
2023-02-17T00:41:29.894Z,101327.16
2023-02-17T00:43:59.559Z,101317.47
2023-02-17T00:46:29.853Z,101320.97
2023-02-17T00:48:59.963Z,101313.84
2023-02-17T00:51:28.113Z,101298.13
2023-02-17T00:54:01.114Z,101299.06
2023-02-17T00:56:29.266Z,101289.31
2023-02-17T00:58:59.590Z,101285.00
2023-02-17T01:01:27.719Z,101286.72
2023-02-17T01:03:55.820Z,101284.25
2023-02-17T01:06:34.835Z,101277.19
2023-02-17T01:09:04.124Z,101271.81
2023-02-17T01:11:33.991Z,101269.19
2023-02-17T01:14:03.967Z,101266.56
2023-02-17T01:16:40.490Z,101274.44
2023-02-17T01:19:19.963Z,101256.91
2023-02-17T01:21:48.086Z,101263.88
2023-02-17T01:24:16.074Z,101270.84
2023-02-17T01:26:44.833Z,101257.59
2023-02-17T01:29:13.491Z,101250.63
2023-02-17T01:31:41.915Z,101237.47
2023-02-17T01:34:11.473Z,101233.84
2023-02-17T01:36:40.380Z,101220.81
2023-02-17T01:39:08.594Z,101223.53
2023-02-17T01:41:38.401Z,101216.53
2023-02-17T01:44:14.455Z,101212.22
2023-02-17T01:46:50.124Z,101207.81
2023-02-17T01:49:37.749Z,101208.72
2023-02-17T01:52:13.998Z,101200.84
2023-02-17T01:54:46.525Z,101210.53
2023-02-17T01:57:19.045Z,101205.25
2023-02-17T01:59:48.491Z,101193.91
2023-02-17T02:02:17.190Z,101209.66
2023-02-17T02:04:52.560Z,101189.63
2023-02-17T02:07:27.366Z,101186.13
2023-02-17T02:09:58.586Z,101188.84
2023-02-17T02:12:32.696Z,101180.84
2023-02-17T02:15:14.156Z,101179.91
2023-02-17T02:17:49.637Z,101179.94
2023-02-17T02:21:03.258Z,101183.41
2023-02-17T02:23:50.736Z,101174.66
2023-02-17T02:26:40.847Z,101175.66
2023-02-17T02:29:47.601Z,101177.28
2023-02-17T02:32:34.913Z,101168.56
2023-02-17T02:35:19.791Z,101165.00
2023-02-17T02:37:53.287Z,101170.34
2023-02-17T02:40:25.203Z,101165.19
2023-02-17T02:42:54.909Z,101157.25
2023-02-17T02:45:23.392Z,101151.09
2023-02-17T02:47:54.344Z,101158.16
2023-02-17T02:50:32.201Z,101156.41
2023-02-17T02:53:12.965Z,101150.28
2023-02-17T02:56:19.887Z,101146.78
2023-02-17T02:59:04.658Z,101145.84
2023-02-17T03:01:45.381Z,101142.34
2023-02-17T03:04:26.875Z,101144.22
2023-02-17T03:07:02.694Z,101138.03
2023-02-17T03:09:31.612Z,101140.66
2023-02-17T03:12:00.372Z,101145.97
2023-02-17T03:14:29.707Z,101132.78
2023-02-17T03:16:58.823Z,101131.75
2023-02-17T03:19:27.137Z,101126.56
2023-02-17T03:22:01.896Z,101133.53
2023-02-17T03:24:30.752Z,101130.84
2023-02-17T03:27:01.236Z,101125.69
2023-02-17T03:29:29.824Z,101120.47
2023-02-17T03:31:58.776Z,101115.22
2023-02-17T03:34:26.985Z,101117.88
2023-02-17T03:36:55.030Z,101115.13
2023-02-17T03:39:24.047Z,101112.50
2023-02-17T03:41:52.804Z,101111.63
2023-02-17T03:44:31.484Z,101111.72
2023-02-17T03:47:02.850Z,101100.38
2023-02-17T03:49:31.878Z,101097.69
2023-02-17T03:51:59.818Z,101095.06
2023-02-17T03:54:30.649Z,101081.94
2023-02-17T03:56:59.755Z,101091.63
2023-02-17T03:59:29.187Z,101085.50
2023-02-17T04:02:01.854Z,101088.13
2023-02-17T04:04:30.030Z,101087.19
2023-02-17T04:06:58.437Z,101078.28
2023-02-17T04:09:26.820Z,101080.00
2023-02-17T04:11:55.110Z,101077.38
2023-02-17T04:14:23.410Z,101077.41
2023-02-17T04:16:52.574Z,101059.66
2023-02-17T04:19:21.340Z,101066.69
2023-02-17T04:21:49.629Z,101056.25
2023-02-17T04:24:17.714Z,101058.63
2023-02-17T04:26:47.208Z,101049.94
2023-02-17T04:29:20.901Z,101048.16
2023-02-17T04:31:49.348Z,101052.66
2023-02-17T04:34:17.637Z,101044.84
2023-02-17T04:36:45.640Z,101041.34
2023-02-17T04:39:14.005Z,101045.56
2023-02-17T04:41:42.227Z,101048.25
2023-02-17T04:44:10.438Z,101044.91
2023-02-17T04:46:38.931Z,101036.00
2023-02-17T04:49:07.847Z,101041.41
2023-02-17T04:51:35.937Z,101034.31
2023-02-17T04:54:04.198Z,101039.59
2023-02-17T04:56:32.433Z,101042.16
2023-02-17T04:59:01.068Z,101029.84
2023-02-17T05:01:29.365Z,101032.41
2023-02-17T05:03:57.471Z,101028.66
2023-02-17T05:06:25.781Z,101033.88
2023-02-17T05:08:54.452Z,101025.78
2023-02-17T05:11:22.897Z,101024.06
2023-02-17T05:13:51.062Z,101023.06
2023-02-17T05:16:19.240Z,101029.25
2023-02-17T05:18:47.568Z,101021.25
2023-02-17T05:21:15.550Z,101022.88
2023-02-17T05:23:43.933Z,101017.59
2023-02-17T05:30:09.404Z,101016.09
2023-02-17T05:32:38.857Z,101013.34
2023-02-17T05:35:09.020Z,101010.41
2023-02-17T05:37:39.156Z,101005.84
2023-02-17T05:40:09.407Z,101011.16
2023-02-17T05:42:37.483Z,101011.06
2023-02-17T05:45:07.932Z,101002.91
2023-02-17T05:47:36.451Z,101006.47
2023-02-17T05:50:04.923Z,101006.41
2023-02-17T05:52:33.199Z,101008.78
2023-02-17T05:55:01.700Z,101001.38
2023-02-17T05:57:31.089Z,101003.72
2023-02-17T06:00:02.175Z,100993.78
2023-02-17T06:02:30.734Z,100995.19
2023-02-17T06:04:59.050Z,101004.72
2023-02-17T06:07:27.514Z,100998.28
2023-02-17T06:09:56.257Z,100998.09
2023-02-17T06:12:24.843Z,100998.66
2023-02-17T06:14:53.267Z,100996.53
2023-02-17T06:17:27.155Z,101001.34
2023-02-17T06:19:56.058Z,100990.69
2023-02-17T06:22:24.980Z,100991.56
2023-02-17T06:24:53.625Z,100997.44
2023-02-17T06:27:21.982Z,100993.91
2023-02-17T06:29:51.441Z,100992.78
2023-02-17T06:32:19.553Z,100989.63
2023-02-17T06:34:51.851Z,100983.25
2023-02-17T06:37:20.534Z,100988.78
2023-02-17T06:39:48.694Z,100983.78
2023-02-17T06:42:17.091Z,100981.53
2023-02-17T06:44:50.014Z,100986.28
2023-02-17T06:47:18.252Z,100971.16
2023-02-17T06:49:46.714Z,100982.56
2023-02-17T06:52:14.894Z,100973.38
2023-02-17T06:54:43.202Z,100967.16
2023-02-17T06:57:11.979Z,100972.81
2023-02-17T06:59:40.746Z,100968.81
2023-02-17T07:02:12.792Z,100969.53
2023-02-17T07:04:41.861Z,100961.25
2023-02-17T07:07:11.143Z,100964.22
2023-02-17T07:09:40.893Z,100960.16
2023-02-17T07:12:12.476Z,100962.91
2023-02-17T07:14:43.453Z,100966.38
2023-02-17T07:17:11.610Z,100961.94
2023-02-17T07:19:41.466Z,100959.28
2023-02-17T07:22:10.168Z,100967.09
2023-02-17T07:24:38.193Z,100960.53
2023-02-17T07:27:09.077Z,100969.53
2023-02-17T07:29:38.776Z,100966.88
2023-02-17T07:32:07.210Z,100967.22
2023-02-17T07:34:35.826Z,100967.56
2023-02-17T07:37:04.972Z,100960.97
2023-02-17T07:39:35.191Z,100954.63
2023-02-17T07:42:05.367Z,100948.13
2023-02-17T07:44:34.488Z,100942.44
2023-02-17T07:47:02.974Z,100946.97
2023-02-17T07:49:31.476Z,100940.28
2023-02-17T07:52:04.941Z,100947.53
2023-02-17T07:54:33.697Z,100933.69
2023-02-17T07:57:02.059Z,100933.25
2023-02-17T07:59:30.879Z,100929.56
2023-02-17T08:01:59.532Z,100929.38
2023-02-17T08:04:27.907Z,100931.44
2023-02-17T08:06:56.949Z,100935.56
2023-02-17T08:09:43.567Z,100928.81
2023-02-17T08:12:35.489Z,100942.09
2023-02-17T08:15:05.123Z,100940.75
2023-02-17T08:17:33.651Z,100933.09
2023-02-17T08:20:08.755Z,100936.53
2023-02-17T08:22:40.181Z,100918.53
2023-02-17T08:25:08.754Z,100926.28
2023-02-17T08:27:36.825Z,100929.28
2023-02-17T08:30:06.029Z,100925.34
2023-02-17T08:32:34.476Z,100922.88
2023-02-17T08:35:02.787Z,100922.28
2023-02-17T08:37:33.444Z,100926.38
2023-02-17T08:40:01.841Z,100928.97
2023-02-17T08:42:32.569Z,100927.16
2023-02-17T08:45:00.836Z,100930.31
2023-02-17T08:47:29.328Z,100921.94
2023-02-17T08:49:57.632Z,100925.09
2023-02-17T08:52:26.078Z,100922.16
2023-02-17T08:54:58.907Z,100916.28
2023-02-17T08:57:27.120Z,100917.97
2023-02-17T08:59:55.410Z,100921.66
2023-02-17T09:02:23.891Z,100925.94
2023-02-17T09:04:52.208Z,100922.63
2023-02-17T09:07:20.264Z,100912.06
2023-02-17T09:09:48.651Z,100918.69
2023-02-17T09:12:17.466Z,100918.19
2023-02-17T09:14:45.776Z,100929.34
2023-02-17T09:17:13.919Z,100922.41
2023-02-17T09:19:42.590Z,100915.81
2023-02-17T09:22:17.522Z,100922.50
2023-02-17T09:24:55.345Z,100913.28
2023-02-17T09:27:23.636Z,100915.25
2023-02-17T09:29:51.739Z,100922.00
2023-02-17T09:32:20.313Z,100917.75
2023-02-17T09:34:51.495Z,100906.34
2023-02-17T09:37:20.186Z,100909.28
2023-02-17T09:39:49.385Z,100901.66
2023-02-17T09:42:24.490Z,100904.75
2023-02-17T09:45:00.335Z,100909.34
2023-02-17T09:47:45.691Z,100913.94
2023-02-17T09:50:19.601Z,100900.56
2023-02-17T09:53:12.524Z,100895.13
2023-02-17T09:55:45.748Z,100893.41
2023-02-17T09:58:18.868Z,100886.41
2023-02-17T10:00:54.400Z,100889.66
2023-02-17T10:03:59.356Z,100883.66
2023-02-17T10:06:36.088Z,100882.97
2023-02-17T10:09:22.490Z,100880.06
2023-02-17T10:12:00.490Z,100879.13
2023-02-17T10:14:41.019Z,100889.28
2023-02-17T10:17:23.764Z,100875.81
2023-02-17T10:20:03.680Z,100871.78
2023-02-17T10:22:33.770Z,100882.59
2023-02-17T10:25:04.440Z,100876.03
2023-02-17T10:28:24.204Z,100877.66
2023-02-17T10:31:04.309Z,100877.03
2023-02-17T10:34:04.322Z,100871.00
2023-02-17T10:36:35.610Z,100871.69
2023-02-17T10:39:16.071Z,100866.66
2023-02-17T10:41:46.233Z,100869.69
2023-02-17T10:44:18.016Z,100863.22
2023-02-17T10:46:49.009Z,100857.78
2023-02-17T10:49:40.315Z,100860.31
2023-02-17T10:52:20.830Z,100860.97
2023-02-17T10:55:00.466Z,100864.47
2023-02-17T10:57:37.345Z,100866.63
2023-02-17T11:00:09.422Z,100864.19
2023-02-17T11:02:42.864Z,100859.91
2023-02-17T11:05:41.928Z,100859.50
2023-02-17T11:08:28.541Z,100852.03
2023-02-17T11:11:06.022Z,100842.25
2023-02-17T11:13:44.880Z,100853.84
2023-02-17T11:16:37.549Z,100840.47
2023-02-17T11:19:08.033Z,100843.59
2023-02-17T11:21:37.685Z,100840.56
2023-02-17T11:24:06.728Z,100835.63
2023-02-17T11:26:36.677Z,100836.19
2023-02-17T11:29:21.979Z,100834.66
2023-02-17T11:31:59.771Z,100836.25
2023-02-17T11:34:30.843Z,100837.69
2023-02-17T11:37:14.377Z,100833.16
2023-02-17T11:39:45.274Z,100833.75
2023-02-17T11:42:25.581Z,100836.19
2023-02-17T11:44:56.403Z,100840.72
2023-02-17T11:47:55.910Z,100834.00
2023-02-17T11:50:50.434Z,100835.09
2023-02-17T11:54:05.188Z,100824.59
2023-02-17T11:56:39.602Z,100835.09
2023-02-17T11:59:42.111Z,100826.50
2023-02-17T12:02:16.081Z,100835.22
2023-02-17T12:05:16.500Z,100838.28
2023-02-17T12:07:58.406Z,100847.47
2023-02-17T12:10:47.051Z,100850.97
2023-02-17T12:13:15.368Z,100856.13
2023-02-17T12:16:10.654Z,100857.22
2023-02-17T12:18:57.572Z,100847.69
2023-02-17T12:21:38.886Z,100860.44
2023-02-17T12:24:40.230Z,100854.19
2023-02-17T12:27:44.242Z,100847.00
2023-02-17T12:30:21.831Z,100849.81
2023-02-17T12:32:57.887Z,100845.94
2023-02-17T12:35:30.869Z,100843.19
2023-02-17T12:38:05.301Z,100842.34
2023-02-17T12:40:43.840Z,100844.78
2023-02-17T12:43:26.108Z,100848.03
2023-02-17T12:45:56.261Z,100848.66
2023-02-17T12:49:01.614Z,100853.59
2023-02-17T12:51:34.610Z,100852.78
2023-02-17T12:54:33.539Z,100851.53
2023-02-17T12:57:22.283Z,100844.94
2023-02-17T12:59:53.550Z,100856.69
2023-02-17T13:02:24.332Z,100860.34
2023-02-17T13:04:57.531Z,100862.31
2023-02-17T13:07:51.653Z,100856.59
2023-02-17T13:10:26.666Z,100852.31
2023-02-17T13:13:03.681Z,100855.19
2023-02-17T13:15:37.908Z,100858.00
2023-02-17T13:18:11.644Z,100860.13
2023-02-17T13:20:53.444Z,100849.06
2023-02-17T13:23:31.895Z,100859.06
2023-02-17T13:26:11.656Z,100862.50
2023-02-17T13:28:40.808Z,100862.38
2023-02-17T13:31:21.134Z,100867.66
2023-02-17T13:33:59.606Z,100869.44
2023-02-17T13:36:28.047Z,100865.78
2023-02-17T13:39:09.897Z,100858.78
2023-02-17T13:41:48.829Z,100855.19
2023-02-17T13:44:29.274Z,100866.56
2023-02-17T13:47:05.809Z,100864.72
2023-02-17T13:49:35.669Z,100855.19
2023-02-17T13:52:29.737Z,100851.06
2023-02-17T13:55:02.568Z,100858.00
2023-02-17T13:57:35.323Z,100850.19
2023-02-17T14:00:23.772Z,100857.25
2023-02-17T14:03:19.936Z,100864.09
2023-02-17T14:05:49.669Z,100864.16
2023-02-17T14:08:34.950Z,100860.00
2023-02-17T14:11:19.032Z,100872.50
2023-02-17T14:13:50.909Z,100856.72
2023-02-17T14:16:39.661Z,100863.91
2023-02-17T14:19:10.570Z,100865.56
2023-02-17T14:21:45.633Z,100867.41
2023-02-17T14:24:26.903Z,100855.78
2023-02-17T14:27:02.669Z,100861.22
2023-02-17T14:29:41.145Z,100862.13
2023-02-17T14:32:35.442Z,100861.06
2023-02-17T14:35:10.846Z,100864.59
2023-02-17T14:37:41.508Z,100867.66
2023-02-17T14:40:21.328Z,100869.59
2023-02-17T14:42:49.940Z,100870.06
2023-02-17T14:45:19.408Z,100859.63
2023-02-17T14:47:49.282Z,100873.97
2023-02-17T14:50:17.821Z,100873.84
2023-02-17T14:52:48.292Z,100882.66
2023-02-17T14:55:28.826Z,100869.50
2023-02-17T14:57:59.983Z,100866.84
2023-02-17T15:00:28.857Z,100875.69
2023-02-17T15:02:57.021Z,100880.16
2023-02-17T15:05:25.734Z,100878.38
2023-02-17T15:07:53.887Z,100880.94
2023-02-17T15:10:32.944Z,100876.44
2023-02-17T15:13:03.069Z,100878.22
2023-02-17T15:15:39.757Z,100878.38
2023-02-17T15:18:08.093Z,100879.34
2023-02-17T15:20:37.534Z,100880.25
2023-02-17T15:23:12.772Z,100894.25
2023-02-17T15:25:42.130Z,100896.78
2023-02-17T15:28:15.167Z,100895.94
2023-02-17T15:30:50.014Z,100900.44
2023-02-17T15:33:19.217Z,100889.00
2023-02-17T15:35:48.581Z,100893.19
2023-02-17T15:38:17.225Z,100901.09
2023-02-17T15:40:45.787Z,100900.91
2023-02-17T15:43:17.908Z,100892.16
2023-02-17T15:45:46.298Z,100901.94
2023-02-17T15:48:25.653Z,100901.94
2023-02-17T15:50:54.532Z,100907.38
2023-02-17T15:53:23.154Z,100912.69
2023-02-17T15:56:03.248Z,100907.44
2023-02-17T15:58:31.525Z,100908.09
2023-02-17T16:01:04.280Z,100910.69
2023-02-17T16:03:32.598Z,100912.41
2023-02-17T16:06:01.953Z,100921.06
2023-02-17T16:08:30.349Z,100914.94
2023-02-17T16:11:02.938Z,100918.38
2023-02-17T16:13:31.518Z,100924.72
2023-02-17T16:16:00.800Z,100913.44
2023-02-17T16:18:29.115Z,100922.00
2023-02-17T16:20:57.527Z,100928.88
2023-02-17T16:23:28.317Z,100927.81
2023-02-17T16:25:56.669Z,100926.16
2023-02-17T16:28:24.841Z,100933.97
2023-02-17T16:30:52.818Z,100930.34
2023-02-17T16:33:21.016Z,100939.22
2023-02-17T16:35:51.348Z,100928.75
2023-02-17T16:38:27.385Z,100931.38
2023-02-17T16:40:55.775Z,100936.78
2023-02-17T16:43:31.198Z,100941.25
2023-02-17T16:46:04.302Z,100943.91
2023-02-17T16:48:35.024Z,100942.13
2023-02-17T16:51:07.534Z,100949.34
2023-02-17T16:53:40.297Z,100944.25
2023-02-17T16:56:17.243Z,100944.06
2023-02-17T16:58:47.384Z,100948.47
2023-02-17T17:01:15.790Z,100943.19
2023-02-17T17:03:44.160Z,100940.53
2023-02-17T17:06:22.018Z,100941.41
2023-02-17T17:08:50.715Z,100948.47
2023-02-17T17:11:21.867Z,100947.59
2023-02-17T17:13:50.618Z,100942.25
2023-02-17T17:16:25.836Z,100950.31
2023-02-17T17:18:54.406Z,100939.94
2023-02-17T17:21:23.652Z,100948.06
2023-02-17T17:23:52.200Z,100943.75
2023-02-17T17:26:35.108Z,100942.09
2023-02-17T17:29:04.311Z,100941.19
2023-02-17T17:31:33.252Z,100941.13
2023-02-17T17:34:03.624Z,100939.44
2023-02-17T17:36:45.316Z,100944.75
2023-02-17T17:39:20.325Z,100941.25
2023-02-17T17:41:50.066Z,100953.75
2023-02-17T17:44:18.439Z,100952.25
2023-02-17T17:46:46.856Z,100948.75
2023-02-17T17:49:18.326Z,100954.09
2023-02-17T17:51:47.090Z,100947.03
2023-02-17T17:54:16.485Z,100949.81
2023-02-17T17:56:45.470Z,100946.16
2023-02-17T17:59:14.955Z,100939.84
2023-02-17T18:01:45.540Z,100935.41
2023-02-17T18:04:17.530Z,100940.75
2023-02-17T18:06:52.110Z,100945.94
2023-02-17T18:09:31.952Z,100937.78
2023-02-17T18:12:11.796Z,100951.84
2023-02-17T18:14:44.316Z,100958.72
2023-02-17T18:17:14.369Z,100967.63
2023-02-17T18:19:42.289Z,100959.22
2023-02-17T18:22:11.184Z,100960.84
2023-02-17T18:24:47.801Z,100963.53
2023-02-17T18:27:16.452Z,100958.28
2023-02-17T18:29:44.533Z,100958.34
2023-02-17T18:32:12.861Z,100956.44
2023-02-17T18:34:42.796Z,100959.09
2023-02-17T18:37:13.884Z,100962.66
2023-02-17T18:39:44.164Z,100966.13
2023-02-17T18:42:12.364Z,100963.47
2023-02-17T18:44:41.371Z,100967.91
2023-02-17T18:47:11.364Z,100965.25
2023-02-17T18:49:39.592Z,100965.13
2023-02-17T18:52:07.746Z,100969.53
2023-02-17T18:54:44.688Z,100966.06
2023-02-17T18:57:17.026Z,100974.03
2023-02-17T18:59:45.121Z,100972.31
2023-02-17T19:02:13.655Z,100976.06
2023-02-17T19:04:42.908Z,100964.75
2023-02-17T19:07:11.098Z,100972.81
2023-02-17T19:09:42.599Z,100979.88
2023-02-17T19:12:16.568Z,100966.78
2023-02-17T19:14:56.217Z,100963.22
2023-02-17T19:17:25.682Z,100974.69
2023-02-17T19:19:53.855Z,100969.44
2023-02-17T19:22:21.877Z,100971.25
2023-02-17T19:24:52.817Z,100960.75
2023-02-17T19:27:21.642Z,100966.19
2023-02-17T19:29:50.059Z,100965.63
2023-02-17T19:32:21.258Z,100963.00
2023-02-17T19:34:52.326Z,100960.25
2023-02-17T19:37:21.495Z,100960.34
2023-02-17T19:39:50.368Z,100961.38
2023-02-17T19:42:18.347Z,100960.41
2023-02-17T19:44:46.662Z,100959.44
2023-02-17T19:47:17.892Z,100948.78
2023-02-17T19:49:47.005Z,100959.19
2023-02-17T19:52:15.108Z,100959.25
2023-02-17T19:54:45.454Z,100953.88
2023-02-17T19:57:19.003Z,100963.91
2023-02-17T19:59:47.839Z,100959.53
2023-02-17T20:02:16.698Z,100964.81
2023-02-17T20:04:44.871Z,100971.03
2023-02-17T20:07:13.594Z,100965.56
2023-02-17T20:09:49.106Z,100953.13
2023-02-17T20:12:18.295Z,100949.47
2023-02-17T20:14:46.832Z,100951.03
2023-02-17T20:17:16.987Z,100941.50
2023-02-17T20:19:45.149Z,100947.75
2023-02-17T20:22:13.648Z,100951.56
2023-02-17T20:24:44.441Z,100951.69
2023-02-17T20:27:12.681Z,100955.94
2023-02-17T20:29:44.511Z,100954.09
2023-02-17T20:32:13.674Z,100949.78
2023-02-17T20:34:42.910Z,100957.75
2023-02-17T20:37:11.932Z,100960.53
2023-02-17T20:39:41.573Z,100955.34
2023-02-17T20:42:13.432Z,100950.06
2023-02-17T20:44:42.615Z,100947.31
2023-02-17T20:47:14.176Z,100935.78
2023-02-17T20:49:42.440Z,100942.94
2023-02-17T20:52:10.469Z,100947.44
2023-02-17T20:54:39.693Z,100943.41
2023-02-17T20:57:14.444Z,100948.50
2023-02-17T20:59:46.181Z,100941.63
2023-02-17T21:02:14.588Z,100948.41
2023-02-17T21:04:42.962Z,100941.31
2023-02-17T21:07:11.952Z,100943.06
2023-02-17T21:09:46.757Z,100939.56
2023-02-17T21:12:15.559Z,100938.63
2023-02-17T21:14:43.922Z,100928.88
2023-02-17T21:17:12.574Z,100929.97
2023-02-17T21:19:41.403Z,100921.22
2023-02-17T21:22:09.436Z,100923.75
2023-02-17T21:24:38.384Z,100929.78
2023-02-17T21:27:06.713Z,100928.69
2023-02-17T21:29:35.414Z,100938.34
2023-02-17T21:32:06.987Z,100929.59
2023-02-17T21:34:40.121Z,100940.88
2023-02-17T21:37:09.635Z,100936.50
2023-02-17T21:39:38.205Z,100943.50
2023-02-17T21:42:06.332Z,100944.28
2023-02-17T21:44:53.171Z,100931.72
2023-02-17T21:47:22.844Z,100935.28
2023-02-17T21:49:54.048Z,100941.53
2023-02-17T21:52:22.902Z,100930.19
2023-02-17T21:54:52.353Z,100922.16
2023-02-17T21:57:20.479Z,100926.50
2023-02-17T21:59:51.652Z,100927.47
2023-02-17T22:02:19.988Z,100924.09
2023-02-17T22:04:48.437Z,100931.16
2023-02-17T22:07:16.880Z,100925.81
2023-02-17T22:09:51.691Z,100923.13
2023-02-17T22:12:22.924Z,100925.13
2023-02-17T22:14:51.210Z,100915.66
2023-02-17T22:17:21.726Z,100910.38
2023-02-17T22:19:50.423Z,100926.13
2023-02-17T22:22:18.575Z,100929.72
2023-02-17T22:24:47.163Z,100921.00
2023-02-17T22:27:16.996Z,100923.47
2023-02-17T22:29:48.620Z,100911.00
2023-02-17T22:32:17.025Z,100909.03
2023-02-17T22:34:45.366Z,100909.22
2023-02-17T22:37:13.771Z,100916.34
2023-02-17T22:39:45.434Z,100910.25
2023-02-17T22:42:14.089Z,100903.19
2023-02-17T22:44:42.178Z,100896.34
2023-02-17T22:47:10.471Z,100896.28
2023-02-17T22:49:38.971Z,100896.19
2023-02-17T22:52:11.772Z,100893.66
2023-02-17T22:54:41.287Z,100893.59
2023-02-17T22:57:10.087Z,100888.25
2023-02-17T22:59:38.859Z,100897.88
2023-02-17T23:02:09.514Z,100891.69
2023-02-17T23:04:38.091Z,100893.41
2023-02-17T23:07:07.870Z,100880.38
2023-02-17T23:09:39.830Z,100885.97
2023-02-17T23:12:27.392Z,100888.53
2023-02-17T23:14:57.176Z,100883.91
2023-02-17T23:17:26.268Z,100883.44
2023-02-17T23:19:56.025Z,100871.84
2023-02-17T23:22:24.267Z,100877.06
2023-02-17T23:24:52.314Z,100862.34
2023-02-17T23:27:20.743Z,100864.94
2023-02-17T23:29:48.715Z,100863.91
2023-02-17T23:32:17.362Z,100860.59
2023-02-17T23:34:45.549Z,100852.59
2023-02-17T23:37:13.963Z,100845.00
2023-02-17T23:39:42.987Z,100850.25
2023-02-17T23:42:16.639Z,100851.09
2023-02-17T23:44:45.156Z,100856.28
2023-02-17T23:47:16.621Z,100852.69
2023-02-17T23:49:46.451Z,100846.38
2023-02-17T23:52:15.054Z,100847.13
2023-02-17T23:54:44.705Z,100843.88
2023-02-17T23:57:15.066Z,100845.81
2023-02-17T23:59:45.433Z,100836.16
